Time;durP1;ratioP1;P1;durP2;ratioP2;P2;SDS_P1;SDS_P2;PMS_P1;PMS_P2;Temp;Humidity;BMP_temperature;BMP_pressure;BME280_temperature;BME280_humidity;BME280_pressure;Samples;Min_cycle;Max_cycle;Signal;HPM_P1;HPM_P2
2021/03/07 00:00:14;;;;;;;10.50;6.90;;;2.10;46.40;;;;;;6225248;28;20440;-60
2021/03/07 00:03:16;;;;;;;11.37;7.37;;;2.10;46.50;;;;;;6225056;28;20471;-63
2021/03/07 00:06:19;;;;;;;9.67;6.97;;;2.00;46.40;;;;;;6224404;28;20488;-60
2021/03/07 00:09:21;;;;;;;12.73;6.53;;;2.00;46.40;;;;;;6202693;28;20938;-62
2021/03/07 00:12:24;;;;;;;13.83;8.10;;;1.90;46.30;;;;;;6200440;28;20464;-58
2021/03/07 00:15:26;;;;;;;9.40;6.50;;;1.90;46.70;;;;;;6200671;28;20584;-61
2021/03/07 00:18:28;;;;;;;10.63;6.83;;;1.90;47.10;;;;;;6200046;28;20960;-61
2021/03/07 00:21:30;;;;;;;7.90;6.57;;;1.90;47.40;;;;;;6200345;28;20483;-61
2021/03/07 00:24:33;;;;;;;13.27;6.37;;;1.90;47.60;;;;;;6200299;28;20476;-59
2021/03/07 00:27:37;;;;;;;8.47;5.87;;;1.90;47.60;;;;;;6199883;28;20495;-61
2021/03/07 00:30:40;;;;;;;10.60;6.40;;;1.80;47.60;;;;;;6200160;28;20477;-61
2021/03/07 00:33:44;;;;;;;7.80;6.00;;;1.80;47.50;;;;;;6195720;28;20476;-60
2021/03/07 00:36:46;;;;;;;9.27;7.03;;;1.70;47.40;;;;;;6196660;28;20789;-60
2021/03/07 00:39:48;;;;;;;7.30;6.27;;;1.70;47.30;;;;;;6200176;28;20473;-60
2021/03/07 00:42:51;;;;;;;8.10;6.10;;;1.70;47.40;;;;;;6199805;28;20825;-59
2021/03/07 00:45:54;;;;;;;11.57;7.13;;;1.70;47.70;;;;;;6222593;28;20476;-60
2021/03/07 00:48:56;;;;;;;7.23;6.27;;;1.70;48.20;;;;;;6224044;28;20864;-62
2021/03/07 00:51:59;;;;;;;9.53;7.13;;;1.60;48.20;;;;;;6224361;28;20513;-61
2021/03/07 00:55:02;;;;;;;9.10;8.20;;;1.60;48.40;;;;;;6224300;28;20486;-60
2021/03/07 00:58:05;;;;;;;13.40;7.20;;;1.60;48.10;;;;;;6224309;28;20479;-61
2021/03/07 01:01:07;;;;;;;8.80;7.87;;;1.60;48.00;;;;;;6224412;28;20971;-60
2021/03/07 01:04:09;;;;;;;7.60;6.43;;;1.60;48.20;;;;;;6222498;28;20471;-58
2021/03/07 01:07:11;;;;;;;8.87;6.23;;;1.50;48.90;;;;;;6222003;28;20478;-58
2021/03/07 01:10:16;;;;;;;8.00;6.13;;;1.40;48.80;;;;;;6221452;28;20491;-58
2021/03/07 01:13:20;;;;;;;7.40;6.60;;;1.30;50.20;;;;;;6221184;28;20484;-58
2021/03/07 01:16:23;;;;;;;8.10;6.30;;;1.30;51.20;;;;;;6220919;28;20472;-59
2021/03/07 01:19:29;;;;;;;7.17;6.47;;;1.30;50.60;;;;;;6227041;28;20487;-59
2021/03/07 01:22:31;;;;;;;9.90;7.37;;;1.30;50.40;;;;;;6228232;28;20467;-58
2021/03/07 01:25:34;;;;;;;7.30;5.87;;;1.30;50.20;;;;;;6228933;28;21002;-58
2021/03/07 01:28:37;;;;;;;8.53;5.93;;;1.30;50.00;;;;;;6226746;28;20996;-58
2021/03/07 01:31:40;;;;;;;9.10;6.03;;;1.30;50.00;;;;;;6228687;28;20479;-58
2021/03/07 01:34:42;;;;;;;10.63;7.10;;;1.40;50.30;;;;;;6229039;28;20479;-58
2021/03/07 01:37:44;;;;;;;9.20;7.43;;;1.30;50.30;;;;;;6228944;28;20827;-58
2021/03/07 01:40:48;;;;;;;10.20;8.83;;;1.40;50.40;;;;;;6228915;28;20975;-59
2021/03/07 01:43:51;;;;;;;10.20;7.47;;;1.30;50.30;;;;;;6229159;28;20472;-58
2021/03/07 01:46:53;;;;;;;10.87;7.00;;;1.30;50.60;;;;;;6228456;28;20968;-59
2021/03/07 01:49:56;;;;;;;9.10;6.53;;;1.30;50.50;;;;;;6228572;28;20475;-59
2021/03/07 01:52:59;;;;;;;8.33;6.00;;;1.20;50.50;;;;;;6228554;28;20483;-58
2021/03/07 01:56:04;;;;;;;8.80;6.43;;;1.20;50.30;;;;;;6228146;28;20480;-58
2021/03/07 01:59:08;;;;;;;10.37;7.37;;;1.20;50.10;;;;;;6228369;28;20892;-58
2021/03/07 02:02:11;;;;;;;9.80;6.30;;;1.10;50.30;;;;;;6228370;28;20960;-59
2021/03/07 02:05:16;;;;;;;6.00;5.10;;;1.00;51.10;;;;;;6228334;28;20885;-58
2021/03/07 02:08:19;;;;;;;6.63;5.40;;;0.90;50.70;;;;;;6228120;28;20976;-58
2021/03/07 02:11:22;;;;;;;6.50;4.77;;;0.80;50.90;;;;;;6227912;28;20546;-58
2021/03/07 02:14:27;;;;;;;7.57;5.37;;;0.70;51.70;;;;;;6228142;28;20487;-58
2021/03/07 02:17:29;;;;;;;8.07;6.40;;;0.60;52.40;;;;;;6228149;28;20947;-58
2021/03/07 02:20:34;;;;;;;6.97;5.60;;;0.60;52.10;;;;;;6227528;28;20484;-58
2021/03/07 02:24:01;;;;;;;7.50;5.63;;;0.80;52.30;;;;;;6228089;28;20894;-58
2021/03/07 02:27:05;;;;;;;6.50;5.27;;;0.80;52.20;;;;;;6222697;28;20479;-59
2021/03/07 02:30:11;;;;;;;9.43;6.20;;;0.80;51.90;;;;;;6227495;28;20467;-59
2021/03/07 02:33:19;;;;;;;9.70;6.73;;;0.80;52.00;;;;;;6227901;28;20486;-58
2021/03/07 02:36:25;;;;;;;11.03;5.87;;;0.80;52.00;;;;;;6227756;28;20468;-58
2021/03/07 02:39:31;;;;;;;8.60;5.80;;;0.80;52.50;;;;;;6227616;28;20468;-58
2021/03/07 02:42:35;;;;;;;9.07;6.03;;;0.80;52.90;;;;;;6222589;28;20998;-58
2021/03/07 02:45:39;;;;;;;8.07;6.27;;;0.80;52.70;;;;;;6227254;28;20480;-59
2021/03/07 02:48:43;;;;;;;9.47;6.63;;;0.70;52.60;;;;;;6227396;28;20482;-58
2021/03/07 02:51:48;;;;;;;6.53;6.03;;;0.70;52.50;;;;;;6226850;28;20476;-59
2021/03/07 02:54:51;;;;;;;10.17;6.33;;;0.70;52.40;;;;;;6226811;28;20972;-59
2021/03/07 02:58:01;;;;;;;6.33;5.00;;;0.60;52.20;;;;;;6227105;28;20471;-59
2021/03/07 03:01:06;;;;;;;6.23;5.30;;;0.50;52.40;;;;;;6226796;28;20979;-59
2021/03/07 03:04:09;;;;;;;6.47;5.37;;;0.50;52.70;;;;;;6226760;28;20472;-59
2021/03/07 03:07:12;;;;;;;5.97;5.03;;;0.50;53.80;;;;;;6227190;28;20483;-59
2021/03/07 03:10:15;;;;;;;6.57;5.40;;;0.50;53.20;;;;;;6227080;28;20972;-59
2021/03/07 03:13:21;;;;;;;7.63;5.50;;;0.50;53.30;;;;;;6226763;28;20551;-61
2021/03/07 03:16:25;;;;;;;5.50;5.10;;;0.50;53.30;;;;;;6226606;28;20476;-59
2021/03/07 03:19:30;;;;;;;4.80;4.40;;;0.50;52.90;;;;;;6226252;28;20999;-59
2021/03/07 03:22:32;;;;;;;4.97;3.97;;;0.50;52.90;;;;;;6226746;28;20472;-58
2021/03/07 03:25:35;;;;;;;7.20;5.07;;;0.40;53.50;;;;;;6226261;28;20527;-60
2021/03/07 03:28:39;;;;;;;5.53;4.93;;;0.40;52.80;;;;;;6226461;28;20472;-60
2021/03/07 03:31:42;;;;;;;5.77;4.33;;;0.20;52.90;;;;;;6226432;28;20492;-60
2021/03/07 03:34:44;;;;;;;6.50;5.87;;;0.20;53.50;;;;;;6226425;28;20989;-60
2021/03/07 03:37:48;;;;;;;5.60;5.00;;;0.20;54.40;;;;;;6226186;28;20468;-60
2021/03/07 03:40:54;;;;;;;5.27;4.80;;;0.20;53.90;;;;;;6225829;28;20465;-60
2021/03/07 03:44:01;;;;;;;6.10;5.50;;;0.20;53.70;;;;;;6226191;28;20476;-61
2021/03/07 03:47:07;;;;;;;5.30;4.73;;;0.20;53.80;;;;;;6225999;28;20476;-60
2021/03/07 03:50:11;;;;;;;5.73;5.23;;;0.20;54.60;;;;;;6221435;28;20476;-60
2021/03/07 03:53:17;;;;;;;9.00;5.50;;;0.10;53.70;;;;;;6225965;28;20472;-60
2021/03/07 03:56:25;;;;;;;6.10;5.30;;;0.20;54.10;;;;;;6225699;28;20476;-60
2021/03/07 03:59:31;;;;;;;10.63;5.43;;;0.10;54.10;;;;;;6225712;28;20460;-62
2021/03/07 04:02:35;;;;;;;10.53;5.70;;;0.00;54.10;;;;;;6225741;28;20871;-60
2021/03/07 04:05:38;;;;;;;6.23;5.60;;;0.00;54.90;;;;;;6225497;28;20855;-60
2021/03/07 04:08:42;;;;;;;6.53;5.80;;;0.00;55.00;;;;;;6225688;28;20472;-60
2021/03/07 04:11:45;;;;;;;7.23;6.53;;;0.00;54.70;;;;;;6225302;28;20487;-60
2021/03/07 04:14:53;;;;;;;6.53;5.93;;;0.00;55.50;;;;;;6225335;28;20480;-60
2021/03/07 04:17:57;;;;;;;5.47;5.07;;;0.00;55.10;;;;;;6225676;28;20759;-59
2021/03/07 04:21:01;;;;;;;6.33;5.30;;;0.00;55.10;;;;;;6225015;28;20523;-59
2021/03/07 04:24:05;;;;;;;5.03;4.53;;;-0.10;55.10;;;;;;6225541;28;20927;-60
2021/03/07 04:27:08;;;;;;;5.37;4.80;;;-0.10;55.10;;;;;;6225145;28;20464;-60
2021/03/07 04:30:12;;;;;;;5.87;4.57;;;-0.10;55.20;;;;;;6225405;28;20444;-61
2021/03/07 04:33:15;;;;;;;8.70;5.10;;;-0.10;55.20;;;;;;6224912;28;20460;-60
2021/03/07 04:36:17;;;;;;;5.83;5.20;;;0.00;55.10;;;;;;6225303;28;20510;-60
2021/03/07 04:39:21;;;;;;;4.70;4.20;;;-0.10;54.80;;;;;;6225464;28;20468;-61
2021/03/07 04:42:23;;;;;;;5.40;4.90;;;-0.20;55.40;;;;;;6224974;28;20865;-61
2021/03/07 04:45:27;;;;;;;10.50;5.00;;;-0.20;55.90;;;;;;6225206;28;20468;-63
2021/03/07 04:48:30;;;;;;;5.83;5.07;;;-0.20;56.00;;;;;;6224976;28;20919;-62
2021/03/07 04:51:32;;;;;;;5.10;4.53;;;-0.30;55.90;;;;;;6217962;28;20480;-60
2021/03/07 04:54:35;;;;;;;5.67;5.00;;;-0.30;55.90;;;;;;6229915;28;20948;-60
2021/03/07 04:57:37;;;;;;;8.13;5.53;;;-0.30;55.90;;;;;;6229885;28;20795;-60
2021/03/07 05:00:40;;;;;;;5.90;4.63;;;-0.30;55.90;;;;;;6230197;28;20479;-60
2021/03/07 05:03:43;;;;;;;8.23;5.47;;;-0.40;56.00;;;;;;6230169;28;20618;-62
2021/03/07 05:06:45;;;;;;;5.50;5.00;;;-0.40;55.80;;;;;;6229913;28;20494;-60
2021/03/07 05:09:47;;;;;;;5.47;4.50;;;-0.40;56.60;;;;;;6230003;28;20472;-60
2021/03/07 05:12:49;;;;;;;6.60;4.90;;;-0.50;56.90;;;;;;6229753;28;20472;-60
2021/03/07 05:15:52;;;;;;;6.07;4.73;;;-0.50;56.70;;;;;;6229820;28;20494;-60
2021/03/07 05:18:55;;;;;;;8.50;5.70;;;-0.50;56.50;;;;;;6229890;28;20488;-61
2021/03/07 05:21:58;;;;;;;5.90;4.60;;;-0.40;56.50;;;;;;6229554;28;21025;-61
2021/03/07 05:25:03;;;;;;;4.90;4.40;;;-0.50;56.50;;;;;;6229292;28;20964;-61
2021/03/07 05:28:06;;;;;;;7.43;6.07;;;-0.50;56.40;;;;;;6229516;28;20468;-61
2021/03/07 05:31:09;;;;;;;7.40;6.60;;;-0.50;56.30;;;;;;6229402;28;20495;-60
2021/03/07 05:34:11;;;;;;;6.77;6.00;;;-0.50;56.60;;;;;;6229503;28;20476;-60
2021/03/07 05:37:13;;;;;;;9.97;8.93;;;-0.50;56.60;;;;;;6229259;28;20471;-62
2021/03/07 05:40:16;;;;;;;11.40;8.70;;;-0.50;56.70;;;;;;6229398;28;20471;-60
2021/03/07 05:43:19;;;;;;;6.90;5.47;;;-0.50;56.70;;;;;;6229214;28;20495;-60
2021/03/07 05:46:22;;;;;;;6.37;5.77;;;-0.50;56.70;;;;;;6228909;28;20622;-61
2021/03/07 05:49:24;;;;;;;8.47;5.10;;;-0.50;56.80;;;;;;6229008;28;20566;-60
2021/03/07 05:52:27;;;;;;;7.60;4.90;;;-0.40;56.90;;;;;;6228837;28;20475;-61
2021/03/07 05:55:29;;;;;;;7.17;5.17;;;-0.40;56.90;;;;;;6219856;28;20948;-61
2021/03/07 05:58:32;;;;;;;6.73;5.90;;;-0.40;57.00;;;;;;6228699;28;20472;-62
2021/03/07 06:01:36;;;;;;;6.03;5.37;;;-0.50;57.90;;;;;;6228028;28;20475;-62
2021/03/07 06:04:38;;;;;;;6.93;6.20;;;-0.50;57.40;;;;;;6228477;28;20551;-62
2021/03/07 06:07:41;;;;;;;6.60;5.43;;;-0.50;57.10;;;;;;6228531;28;20472;-61
2021/03/07 06:10:43;;;;;;;6.53;5.30;;;-0.50;57.40;;;;;;6228351;28;20469;-61
2021/03/07 06:13:45;;;;;;;7.50;5.93;;;-0.40;58.00;;;;;;6228307;28;20471;-62
2021/03/07 06:17:04;;;;;;;9.10;6.50;;;-0.40;57.30;;;;;;6228156;28;20484;-62
2021/03/07 06:20:10;;;;;;;6.97;5.97;;;-0.40;57.20;;;;;;6227028;28;20559;-61
2021/03/07 06:23:12;;;;;;;7.27;6.13;;;-0.30;57.20;;;;;;6228083;28;20479;-62
2021/03/07 06:26:14;;;;;;;6.20;5.60;;;-0.30;57.10;;;;;;6227713;28;20481;-63
2021/03/07 06:29:17;;;;;;;7.70;6.50;;;-0.20;57.10;;;;;;6228112;28;20470;-61
2021/03/07 06:32:23;;;;;;;8.23;6.47;;;-0.20;57.20;;;;;;6228246;28;20830;-60
2021/03/07 06:35:27;;;;;;;7.17;6.20;;;-0.10;56.90;;;;;;6227777;28;20487;-61
2021/03/07 06:38:44;;;;;;;6.97;5.80;;;0.00;56.50;;;;;;6227998;28;20984;-61
2021/03/07 06:41:46;;;;;;;6.07;5.47;;;0.00;55.90;;;;;;6227611;28;20469;-59
2021/03/07 06:44:55;;;;;;;12.07;5.83;;;0.10;55.80;;;;;;6227464;28;20480;-59
2021/03/07 06:48:01;;;;;;;6.00;5.30;;;0.20;55.90;;;;;;6227716;28;20555;-61
2021/03/07 06:51:04;;;;;;;8.90;6.03;;;0.30;55.80;;;;;;6227654;28;20464;-60
2021/03/07 06:54:17;;;;;;;7.30;5.97;;;0.30;55.60;;;;;;6227303;28;20515;-60
2021/03/07 06:57:28;;;;;;;6.40;5.90;;;0.40;55.40;;;;;;6223040;28;20465;-60
2021/03/07 07:00:37;;;;;;;5.60;5.00;;;0.50;55.40;;;;;;6227165;28;20468;-60
2021/03/07 07:03:56;;;;;;;6.17;5.23;;;0.50;55.30;;;;;;6227131;28;20794;-59
2021/03/07 07:07:03;;;;;;;7.03;5.23;;;0.60;55.30;;;;;;6227190;28;20484;-59
2021/03/07 07:10:07;;;;;;;7.33;5.23;;;0.80;55.40;;;;;;6227163;28;20476;-61
2021/03/07 07:13:12;;;;;;;7.27;5.23;;;0.90;55.20;;;;;;6226690;28;20819;-60
2021/03/07 07:16:15;;;;;;;8.37;5.10;;;1.00;55.10;;;;;;6226653;28;20799;-60
2021/03/07 07:19:19;;;;;;;8.00;6.30;;;1.10;55.00;;;;;;6226735;28;20480;-60
2021/03/07 07:22:21;;;;;;;8.30;5.77;;;1.20;54.80;;;;;;6226969;28;20482;-59
2021/03/07 07:25:24;;;;;;;8.47;6.03;;;1.30;54.70;;;;;;6226778;28;20487;-60
2021/03/07 07:28:27;;;;;;;7.20;5.37;;;1.40;54.40;;;;;;6226491;28;20468;-61
2021/03/07 07:31:35;;;;;;;6.50;5.50;;;1.50;54.10;;;;;;6226407;28;20570;-60
2021/03/07 07:34:45;;;;;;;8.57;5.33;;;1.60;54.00;;;;;;6226654;28;20618;-60
2021/03/07 07:37:52;;;;;;;7.27;5.87;;;1.80;53.60;;;;;;6226290;28;20995;-62
2021/03/07 07:40:54;;;;;;;6.47;5.47;;;2.00;53.00;;;;;;6226605;28;20479;-61
2021/03/07 07:43:56;;;;;;;8.60;4.90;;;2.20;52.40;;;;;;6226784;28;20472;-61
2021/03/07 07:47:01;;;;;;;8.17;4.20;;;2.50;51.80;;;;;;6226558;28;20808;-62
2021/03/07 07:50:05;;;;;;;6.20;5.60;;;2.50;50.70;;;;;;6226017;28;20468;-64
2021/03/07 07:53:36;;;;;;;4.90;4.50;;;2.70;50.00;;;;;;6226083;28;20484;-63
2021/03/07 07:56:41;;;;;;;6.87;4.60;;;6.10;47.50;;;;;;6226007;28;20486;-61
2021/03/07 07:59:51;;;;;;;4.47;3.90;;;10.70;39.30;;;;;;6226304;28;20492;-62
2021/03/07 08:02:56;;;;;;;5.20;4.70;;;14.60;31.30;;;;;;6225897;28;20468;-61
2021/03/07 08:06:01;;;;;;;7.53;4.80;;;17.60;27.40;;;;;;6225869;28;21002;-62
2021/03/07 08:09:37;;;;;;;5.27;4.20;;;19.00;24.10;;;;;;6226108;28;20448;-61
2021/03/07 08:12:50;;;;;;;5.00;4.60;;;17.10;23.30;;;;;;6225873;28;20468;-61
2021/03/07 08:15:53;;;;;;;5.17;4.63;;;15.30;23.70;;;;;;6225452;28;20479;-61
2021/03/07 08:18:57;;;;;;;8.03;4.40;;;15.40;24.00;;;;;;6225574;28;20804;-62
2021/03/07 08:22:03;;;;;;;5.10;4.70;;;17.60;23.20;;;;;;6225772;28;20480;-61
2021/03/07 08:25:06;;;;;;;4.87;4.27;;;19.90;22.30;;;;;;6225208;28;21047;-60
2021/03/07 08:28:41;;;;;;;5.50;5.00;;;19.50;21.50;;;;;;6225550;28;20491;-61
2021/03/07 08:31:44;;;;;;;6.63;5.73;;;20.30;21.70;;;;;;6225268;28;20499;-60
2021/03/07 08:34:47;;;;;;;6.17;5.67;;;22.80;20.60;;;;;;6225288;28;20589;-62
2021/03/07 08:38:09;;;;;;;6.47;5.87;;;24.80;19.60;;;;;;6225430;28;20240;-62
2021/03/07 08:41:12;;;;;;;8.70;6.17;;;26.20;18.20;;;;;;6225117;28;20253;-61
2021/03/07 08:44:15;;;;;;;7.53;6.83;;;27.80;17.30;;;;;;6225270;28;20348;-63
2021/03/07 08:47:17;;;;;;;7.73;7.03;;;29.30;16.50;;;;;;6225119;28;20315;-62
2021/03/07 08:50:21;;;;;;;9.03;8.23;;;30.40;15.40;;;;;;6225090;28;20238;-61
2021/03/07 08:53:25;;;;;;;8.97;8.20;;;30.40;15.50;;;;;;6225002;28;20236;-61
2021/03/07 08:56:27;;;;;;;9.57;8.67;;;30.60;15.00;;;;;;6224952;28;20245;-62
2021/03/07 08:59:30;;;;;;;8.90;8.13;;;30.20;15.20;;;;;;6224529;28;20228;-61
2021/03/07 09:02:35;;;;;;;9.13;8.23;;;31.10;14.90;;;;;;6219358;28;20287;-61
2021/03/07 09:05:37;;;;;;;8.07;7.40;;;31.70;14.40;;;;;;6224944;28;20247;-62
2021/03/07 09:08:42;;;;;;;7.93;6.77;;;31.40;13.90;;;;;;6214721;28;20294;-61
2021/03/07 09:11:50;;;;;;;7.95;7.30;;;31.30;14.30;;;;;;6222962;28;20568;-62
2021/03/07 09:14:52;;;;;;;8.25;7.55;;;31.90;13.90;;;;;;6224059;28;20248;-62
2021/03/07 09:17:57;;;;;;;7.55;7.03;;;32.90;13.80;;;;;;6224292;28;20251;-61
2021/03/07 09:21:02;;;;;;;7.65;6.95;;;32.70;13.10;;;;;;6224327;28;20236;-62
2021/03/07 09:24:11;;;;;;;8.30;7.60;;;32.10;13.40;;;;;;6224991;28;20208;-61
2021/03/07 09:27:14;;;;;;;7.60;7.03;;;34.10;12.90;;;;;;6224899;28;20228;-60
2021/03/07 09:30:20;;;;;;;8.38;7.57;;;33.90;12.60;;;;;;6224761;28;20648;-63
2021/03/07 09:33:22;;;;;;;7.63;6.97;;;35.00;12.60;;;;;;6223979;28;20224;-61
2021/03/07 09:36:26;;;;;;;8.18;7.50;;;35.60;11.90;;;;;;6224436;28;20238;-61
2021/03/07 09:39:29;;;;;;;8.30;7.70;;;36.70;11.80;;;;;;6229233;28;20239;-61
2021/03/07 09:42:31;;;;;;;7.70;7.00;;;37.10;11.30;;;;;;6228965;28;20551;-61
2021/03/07 09:45:34;;;;;;;8.30;7.60;;;37.40;11.20;;;;;;6228659;28;20246;-61
2021/03/07 09:48:55;;;;;;;8.68;8.02;;;37.20;11.30;;;;;;6228440;28;20564;-61
2021/03/07 09:51:58;;;;;;;9.32;8.48;;;36.00;11.40;;;;;;6224916;28;20236;-62
2021/03/07 09:55:02;;;;;;;8.45;7.75;;;36.50;11.50;;;;;;6228702;28;20565;-63
2021/03/07 09:58:16;;;;;;;7.88;7.18;;;37.50;11.20;;;;;;6229116;28;20695;-63
2021/03/07 10:01:21;;;;;;;7.60;6.85;;;37.50;11.00;;;;;;6228540;28;20251;-61
2021/03/07 10:04:34;;;;;;;7.47;6.88;;;37.30;11.00;;;;;;6228544;28;20232;-62
2021/03/07 10:07:37;;;;;;;7.60;6.90;;;37.60;10.70;;;;;;6228516;28;20228;-61
2021/03/07 10:10:40;;;;;;;6.22;5.72;;;38.70;10.50;;;;;;6222623;28;20235;-64
2021/03/07 10:13:45;;;;;;;6.60;5.97;;;39.00;10.30;;;;;;6228010;28;20243;-62
2021/03/07 10:16:51;;;;;;;7.10;6.50;;;39.50;10.00;;;;;;6228956;28;20246;-62
2021/03/07 10:19:54;;;;;;;6.63;6.07;;;40.20;9.80;;;;;;6227919;28;20248;-63
2021/03/07 10:22:56;;;;;;;6.43;5.93;;;40.40;9.60;;;;;;6228075;28;20232;-61
2021/03/07 10:26:03;;;;;;;6.43;5.93;;;40.70;9.60;;;;;;6228045;28;20247;-61
2021/03/07 10:29:24;;;;;;;6.80;6.15;;;41.10;9.40;;;;;;6227900;28;20569;-61
2021/03/07 10:32:26;;;;;;;6.00;5.50;;;40.10;9.50;;;;;;6228259;28;20224;-62
2021/03/07 10:35:28;;;;;;;7.72;7.10;;;39.30;9.50;;;;;;6227925;28;20311;-62
2021/03/07 10:38:32;;;;;;;7.70;6.03;;;39.60;9.80;;;;;;6227402;28;20680;-62
2021/03/07 10:41:35;;;;;;;6.32;5.57;;;39.80;9.60;;;;;;6226615;28;20561;-63
2021/03/07 10:44:40;;;;;;;6.68;6.18;;;40.70;9.40;;;;;;6227442;28;20229;-62
2021/03/07 10:47:43;;;;;;;6.55;5.95;;;41.30;9.40;;;;;;6227379;28;20236;-62
2021/03/07 10:50:48;;;;;;;7.05;6.55;;;41.60;9.10;;;;;;6226323;28;20228;-61
2021/03/07 10:53:51;;;;;;;6.35;5.85;;;41.00;9.00;;;;;;6227351;28;20702;-62
2021/03/07 10:56:54;;;;;;;6.60;6.10;;;41.60;9.20;;;;;;6227056;28;20235;-62
2021/03/07 10:59:57;;;;;;;7.57;6.97;;;41.70;9.00;;;;;;6226833;28;20231;-62
2021/03/07 11:03:00;;;;;;;6.47;6.07;;;41.50;9.30;;;;;;6223829;28;20666;-62
2021/03/07 11:06:03;;;;;;;6.65;6.15;;;39.90;9.40;;;;;;6225505;28;20221;-62
2021/03/07 11:09:06;;;;;;;6.10;5.60;;;40.80;9.40;;;;;;6225916;28;20204;-61
2021/03/07 11:12:10;;;;;;;6.25;5.75;;;41.60;9.00;;;;;;6226674;28;20228;-63
2021/03/07 11:15:13;;;;;;;6.28;5.78;;;40.60;9.00;;;;;;6213115;28;20220;-62
2021/03/07 11:18:15;;;;;;;6.25;5.85;;;39.90;9.20;;;;;;6226403;28;20211;-63
2021/03/07 11:21:18;;;;;;;6.72;6.03;;;40.20;9.30;;;;;;6225438;28;20228;-62
2021/03/07 11:24:20;;;;;;;7.00;6.50;;;40.20;9.50;;;;;;6226179;28;20227;-62
2021/03/07 11:27:23;;;;;;;6.85;6.35;;;40.20;9.40;;;;;;6204333;28;20684;-64
2021/03/07 11:30:26;;;;;;;7.63;7.03;;;39.60;10.10;;;;;;6216754;28;20224;-64
2021/03/07 11:33:28;;;;;;;6.20;5.80;;;37.90;10.20;;;;;;6225421;28;20220;-65
2021/03/07 11:36:31;;;;;;;6.63;6.10;;;37.10;10.00;;;;;;6225713;28;20262;-63
2021/03/07 11:39:33;;;;;;;7.07;6.57;;;37.90;10.20;;;;;;6226005;28;20223;-64
2021/03/07 11:42:39;;;;;;;7.10;6.50;;;39.00;9.80;;;;;;6225756;28;20236;-65
2021/03/07 11:45:41;;;;;;;6.72;6.22;;;40.60;9.50;;;;;;6210022;28;20228;-65
2021/03/07 11:48:43;;;;;;;7.57;6.95;;;41.80;9.20;;;;;;6201188;28;20723;-64
2021/03/07 11:51:46;;;;;;;6.90;6.30;;;41.40;9.00;;;;;;6201134;28;20566;-65
2021/03/07 11:54:48;;;;;;;7.03;6.32;;;41.10;9.10;;;;;;6211827;28;20228;-64
2021/03/07 11:57:52;;;;;;;6.93;6.43;;;41.70;9.10;;;;;;6225178;28;20235;-63
2021/03/07 12:00:54;;;;;;;7.45;6.88;;;41.10;9.20;;;;;;6224833;28;20676;-64
2021/03/07 12:03:56;;;;;;;6.55;6.05;;;41.60;9.00;;;;;;6225371;28;20252;-62
2021/03/07 12:07:01;;;;;;;6.53;6.03;;;38.50;9.60;;;;;;6225477;28;20307;-62
2021/03/07 12:10:05;;;;;;;5.82;5.43;;;39.50;9.50;;;;;;6225321;28;20228;-62
2021/03/07 12:13:08;;;;;;;6.70;6.20;;;39.50;9.20;;;;;;6224995;28;20224;-62
2021/03/07 12:16:10;;;;;;;7.43;6.82;;;39.60;9.40;;;;;;6225211;28;20236;-62
2021/03/07 12:19:13;;;;;;;7.07;6.47;;;40.20;10.00;;;;;;6224554;28;20390;-62
2021/03/07 12:22:15;;;;;;;7.95;7.25;;;40.00;9.30;;;;;;6224563;28;20230;-63
2021/03/07 12:25:22;;;;;;;7.25;6.57;;;40.40;9.40;;;;;;6224856;28;20240;-62
2021/03/07 12:28:28;;;;;;;6.38;5.88;;;39.80;9.60;;;;;;6214871;28;20232;-63
2021/03/07 12:31:31;;;;;;;7.30;6.70;;;39.00;9.70;;;;;;6200509;28;20315;-65
2021/03/07 12:34:34;;;;;;;7.05;6.47;;;39.10;9.40;;;;;;6200300;28;20248;-64
2021/03/07 12:37:36;;;;;;;6.13;5.72;;;38.50;9.40;;;;;;6221937;28;20251;-63
2021/03/07 12:40:39;;;;;;;6.38;5.88;;;38.70;9.50;;;;;;6224704;28;20760;-62
2021/03/07 12:43:42;;;;;;;7.25;6.55;;;39.70;9.30;;;;;;6224900;28;20240;-62
2021/03/07 12:46:44;;;;;;;6.95;6.40;;;39.50;9.10;;;;;;6224836;28;20232;-62
2021/03/07 12:49:47;;;;;;;6.55;6.05;;;37.70;9.50;;;;;;6222508;28;20683;-62
2021/03/07 12:52:49;;;;;;;6.35;5.85;;;37.70;10.40;;;;;;6222368;28;20780;-63
2021/03/07 12:55:51;;;;;;;6.78;6.28;;;38.00;9.60;;;;;;6222268;28;20251;-64
2021/03/07 12:58:54;;;;;;;5.63;5.13;;;37.30;9.90;;;;;;6222302;28;20224;-65
2021/03/07 13:01:57;;;;;;;6.20;5.80;;;38.60;9.40;;;;;;6220926;28;20386;-63
2021/03/07 13:04:59;;;;;;;5.50;5.10;;;39.20;9.00;;;;;;6199708;28;20233;-63
2021/03/07 13:08:01;;;;;;;6.03;5.57;;;39.40;8.90;;;;;;6195691;28;20240;-64
2021/03/07 13:11:04;;;;;;;6.35;5.95;;;39.80;9.10;;;;;;6199959;28;20259;-63
2021/03/07 13:14:07;;;;;;;5.75;5.35;;;40.40;8.90;;;;;;6203875;28;20240;-63
2021/03/07 13:17:10;;;;;;;5.30;4.90;;;38.50;9.50;;;;;;6204548;28;20287;-63
2021/03/07 13:20:14;;;;;;;6.30;5.80;;;38.30;8.90;;;;;;6204370;28;20275;-63
2021/03/07 13:23:16;;;;;;;5.43;5.03;;;36.50;9.60;;;;;;6204438;28;20248;-63
2021/03/07 13:26:18;;;;;;;6.28;5.78;;;37.70;9.50;;;;;;6204233;28;20657;-63
2021/03/07 13:29:24;;;;;;;5.97;5.55;;;37.80;9.50;;;;;;6203770;28;20225;-63
2021/03/07 13:32:26;;;;;;;5.82;5.43;;;36.70;9.60;;;;;;6204246;28;20221;-63
2021/03/07 13:35:29;;;;;;;6.20;5.70;;;34.80;10.30;;;;;;6208349;28;20310;-63
2021/03/07 13:38:31;;;;;;;6.15;5.65;;;34.90;10.50;;;;;;6228324;28;20247;-63
2021/03/07 13:41:33;;;;;;;6.80;6.30;;;34.50;10.70;;;;;;6228400;28;20224;-63
2021/03/07 13:44:36;;;;;;;6.40;5.80;;;33.70;10.90;;;;;;6228303;28;20229;-63
2021/03/07 13:47:39;;;;;;;5.93;5.53;;;33.30;11.00;;;;;;6228299;28;20235;-63
2021/03/07 13:50:41;;;;;;;6.97;6.47;;;32.90;11.10;;;;;;6228383;28;20239;-62
2021/03/07 13:53:43;;;;;;;5.83;5.40;;;28.80;12.40;;;;;;6228084;28;20575;-63
2021/03/07 13:56:46;;;;;;;5.83;5.37;;;25.90;13.50;;;;;;6227931;28;20232;-61
2021/03/07 13:59:49;;;;;;;6.13;5.53;;;23.00;15.00;;;;;;6227969;28;20703;-61
2021/03/07 14:02:51;;;;;;;5.30;4.90;;;21.00;16.00;;;;;;6227840;28;20229;-61
2021/03/07 14:05:56;;;;;;;5.77;5.33;;;19.10;17.30;;;;;;6227692;28;20245;-63
2021/03/07 14:08:59;;;;;;;5.50;5.00;;;17.80;18.30;;;;;;6227882;28;20217;-62
2021/03/07 14:12:03;;;;;;;4.87;4.30;;;17.10;18.90;;;;;;6223577;28;20449;-61
2021/03/07 14:15:10;;;;;;;5.60;5.20;;;16.10;19.80;;;;;;6227238;28;20920;-61
2021/03/07 14:18:13;;;;;;;6.00;5.13;;;15.30;20.40;;;;;;6227527;28;20916;-63
2021/03/07 14:21:15;;;;;;;6.70;4.90;;;15.00;21.70;;;;;;6227222;28;20476;-61
2021/03/07 14:24:18;;;;;;;5.40;4.90;;;14.50;21.90;;;;;;6227057;28;20935;-61
2021/03/07 14:27:20;;;;;;;5.53;5.00;;;13.90;22.90;;;;;;6226975;28;20482;-60
2021/03/07 14:30:24;;;;;;;5.80;5.33;;;13.70;22.90;;;;;;6203063;28;20460;-61
2021/03/07 14:33:26;;;;;;;4.90;4.50;;;13.60;22.90;;;;;;6202719;28;20806;-61
2021/03/07 14:36:28;;;;;;;5.83;5.23;;;13.50;22.90;;;;;;6215617;28;20484;-61
2021/03/07 14:39:31;;;;;;;5.17;4.30;;;13.40;23.00;;;;;;6227291;28;20472;-61
2021/03/07 14:42:33;;;;;;;4.80;4.30;;;13.20;22.90;;;;;;6226862;28;20817;-61
2021/03/07 14:45:36;;;;;;;4.87;4.37;;;13.20;23.00;;;;;;6226649;28;20494;-61
2021/03/07 14:48:39;;;;;;;5.00;4.60;;;13.30;23.10;;;;;;6226736;28;20817;-61
2021/03/07 14:51:41;;;;;;;4.83;4.43;;;13.30;23.10;;;;;;6226733;28;21083;-61
2021/03/07 14:54:44;;;;;;;5.13;4.73;;;13.30;23.00;;;;;;6226562;28;20824;-61
2021/03/07 14:57:47;;;;;;;5.30;4.80;;;13.20;23.50;;;;;;6226940;28;20478;-62
2021/03/07 15:00:50;;;;;;;4.80;4.40;;;13.00;23.30;;;;;;6226833;28;20819;-62
2021/03/07 15:03:54;;;;;;;5.87;5.27;;;12.90;23.30;;;;;;6226651;28;20472;-62
2021/03/07 15:06:57;;;;;;;5.87;5.37;;;12.70;23.60;;;;;;6210477;28;20492;-61
2021/03/07 15:09:59;;;;;;;5.50;5.00;;;12.30;24.80;;;;;;6201789;28;21016;-61
2021/03/07 15:13:01;;;;;;;5.70;4.40;;;12.10;25.20;;;;;;6201783;28;20476;-60
2021/03/07 15:16:05;;;;;;;5.80;5.30;;;12.10;25.50;;;;;;6201644;28;20472;-60
2021/03/07 15:19:09;;;;;;;6.87;6.20;;;12.10;26.30;;;;;;6201559;28;20477;-61
2021/03/07 15:22:14;;;;;;;6.77;6.07;;;12.10;26.40;;;;;;6201637;28;20473;-60
2021/03/07 15:25:17;;;;;;;7.03;6.43;;;11.90;27.00;;;;;;6201468;28;20488;-60
2021/03/07 15:28:19;;;;;;;6.73;6.00;;;11.80;27.40;;;;;;6201333;28;20473;-62
2021/03/07 15:31:22;;;;;;;6.57;6.03;;;11.90;27.80;;;;;;6201333;28;20481;-61
2021/03/07 15:34:25;;;;;;;6.90;6.20;;;11.90;28.10;;;;;;6200968;28;20600;-62
2021/03/07 15:37:27;;;;;;;6.83;6.17;;;11.80;28.50;;;;;;6221493;28;20467;-60
2021/03/07 15:40:29;;;;;;;7.03;6.33;;;11.70;28.50;;;;;;6225521;28;20551;-61
2021/03/07 15:43:32;;;;;;;6.90;6.20;;;11.70;29.10;;;;;;6225285;28;20819;-61
2021/03/07 15:46:38;;;;;;;6.83;6.13;;;11.40;28.80;;;;;;6225142;28;20479;-61
2021/03/07 15:49:40;;;;;;;7.83;7.03;;;11.50;29.10;;;;;;6225357;28;20813;-61
2021/03/07 15:52:43;;;;;;;7.13;6.17;;;11.40;29.20;;;;;;6225400;28;20464;-61
2021/03/07 15:55:45;;;;;;;8.80;7.90;;;11.40;29.30;;;;;;6225051;28;20472;-62
2021/03/07 15:58:48;;;;;;;8.47;6.50;;;11.20;29.50;;;;;;6225352;28;20949;-61
2021/03/07 16:01:51;;;;;;;7.47;6.77;;;11.20;29.40;;;;;;6224990;28;20801;-63